sensor_id;sensor_type;location;lat;lon;timestamp;P1;durP1;ratioP1;P2;durP2;ratioP2
69951;SDS011;60406;48.408;13.392;2022-07-06T00:04:13;7.05;;;6.35;;
69951;SDS011;60406;48.408;13.392;2022-07-06T00:09:14;9.63;;;6.47;;
69951;SDS011;60406;48.408;13.392;2022-07-06T00:14:15;8.85;;;6.32;;
69951;SDS011;60406;48.408;13.392;2022-07-06T00:19:16;9.05;;;6.35;;
69951;SDS011;60406;48.408;13.392;2022-07-06T00:24:17;6.03;;;5.50;;
69951;SDS011;60406;48.408;13.392;2022-07-06T00:29:18;8.15;;;5.85;;
69951;SDS011;60406;48.408;13.392;2022-07-06T00:34:18;6.53;;;5.43;;
69951;SDS011;60406;48.408;13.392;2022-07-06T00:39:19;9.20;;;5.72;;
69951;SDS011;60406;48.408;13.392;2022-07-06T00:44:20;7.95;;;6.03;;
69951;SDS011;60406;48.408;13.392;2022-07-06T00:49:21;7.35;;;6.60;;
69951;SDS011;60406;48.408;13.392;2022-07-06T00:54:22;7.68;;;6.63;;
69951;SDS011;60406;48.408;13.392;2022-07-06T00:59:23;8.95;;;7.22;;
69951;SDS011;60406;48.408;13.392;2022-07-06T01:04:24;10.57;;;7.25;;
69951;SDS011;60406;48.408;13.392;2022-07-06T01:09:25;9.23;;;6.78;;
69951;SDS011;60406;48.408;13.392;2022-07-06T01:14:26;8.90;;;6.53;;
69951;SDS011;60406;48.408;13.392;2022-07-06T01:19:27;7.47;;;6.72;;
69951;SDS011;60406;48.408;13.392;2022-07-06T01:24:28;8.93;;;8.13;;
69951;SDS011;60406;48.408;13.392;2022-07-06T01:29:29;8.77;;;7.32;;
69951;SDS011;60406;48.408;13.392;2022-07-06T01:34:30;10.10;;;8.48;;
69951;SDS011;60406;48.408;13.392;2022-07-06T01:39:31;11.05;;;8.75;;
69951;SDS011;60406;48.408;13.392;2022-07-06T01:44:32;10.35;;;9.38;;
69951;SDS011;60406;48.408;13.392;2022-07-06T01:49:32;10.48;;;9.48;;
69951;SDS011;60406;48.408;13.392;2022-07-06T01:54:33;8.80;;;8.00;;
69951;SDS011;60406;48.408;13.392;2022-07-06T01:59:34;11.70;;;10.20;;
69951;SDS011;60406;48.408;13.392;2022-07-06T02:04:35;10.27;;;9.32;;
69951;SDS011;60406;48.408;13.392;2022-07-06T02:09:36;11.27;;;9.07;;
69951;SDS011;60406;48.408;13.392;2022-07-06T02:14:37;13.95;;;11.30;;
69951;SDS011;60406;48.408;13.392;2022-07-06T02:19:38;9.30;;;8.50;;
69951;SDS011;60406;48.408;13.392;2022-07-06T02:24:38;9.23;;;8.32;;
69951;SDS011;60406;48.408;13.392;2022-07-06T02:29:39;9.43;;;7.82;;
69951;SDS011;60406;48.408;13.392;2022-07-06T02:34:40;13.07;;;7.85;;
69951;SDS011;60406;48.408;13.392;2022-07-06T02:39:41;10.43;;;8.38;;
69951;SDS011;60406;48.408;13.392;2022-07-06T02:44:42;9.45;;;8.55;;
69951;SDS011;60406;48.408;13.392;2022-07-06T02:49:43;10.32;;;8.77;;
69951;SDS011;60406;48.408;13.392;2022-07-06T02:54:44;16.48;;;7.70;;
69951;SDS011;60406;48.408;13.392;2022-07-06T02:59:44;13.88;;;6.93;;
69951;SDS011;60406;48.408;13.392;2022-07-06T03:04:45;7.53;;;6.82;;
69951;SDS011;60406;48.408;13.392;2022-07-06T03:09:46;12.75;;;6.68;;
69951;SDS011;60406;48.408;13.392;2022-07-06T03:14:47;7.63;;;5.85;;
69951;SDS011;60406;48.408;13.392;2022-07-06T03:19:48;10.20;;;6.43;;
69951;SDS011;60406;48.408;13.392;2022-07-06T03:24:49;10.32;;;6.40;;
69951;SDS011;60406;48.408;13.392;2022-07-06T03:29:50;10.95;;;8.25;;
69951;SDS011;60406;48.408;13.392;2022-07-06T03:34:51;12.80;;;7.20;;
69951;SDS011;60406;48.408;13.392;2022-07-06T03:39:52;8.60;;;7.80;;
69951;SDS011;60406;48.408;13.392;2022-07-06T03:44:52;8.57;;;7.78;;
69951;SDS011;60406;48.408;13.392;2022-07-06T03:49:53;10.63;;;7.65;;
69951;SDS011;60406;48.408;13.392;2022-07-06T03:54:55;10.38;;;8.02;;
69951;SDS011;60406;48.408;13.392;2022-07-06T03:59:56;10.05;;;9.02;;
69951;SDS011;60406;48.408;13.392;2022-07-06T04:04:57;8.35;;;7.65;;
69951;SDS011;60406;48.408;13.392;2022-07-06T04:09:58;8.50;;;7.38;;
69951;SDS011;60406;48.408;13.392;2022-07-06T04:14:59;10.95;;;7.53;;
69951;SDS011;60406;48.408;13.392;2022-07-06T04:20:00;13.70;;;9.38;;
69951;SDS011;60406;48.408;13.392;2022-07-06T04:25:00;12.98;;;9.63;;
69951;SDS011;60406;48.408;13.392;2022-07-06T04:30:05;16.92;;;10.20;;
69951;SDS011;60406;48.408;13.392;2022-07-06T04:35:06;12.95;;;10.00;;
69951;SDS011;60406;48.408;13.392;2022-07-06T04:40:07;9.18;;;8.23;;
69951;SDS011;60406;48.408;13.392;2022-07-06T04:45:08;10.50;;;8.02;;
69951;SDS011;60406;48.408;13.392;2022-07-06T04:50:10;8.90;;;7.13;;
69951;SDS011;60406;48.408;13.392;2022-07-06T04:55:11;14.20;;;7.00;;
69951;SDS011;60406;48.408;13.392;2022-07-06T05:00:12;8.82;;;7.88;;
69951;SDS011;60406;48.408;13.392;2022-07-06T05:05:13;8.50;;;7.30;;
69951;SDS011;60406;48.408;13.392;2022-07-06T05:10:14;8.35;;;6.53;;
69951;SDS011;60406;48.408;13.392;2022-07-06T05:15:15;15.95;;;6.00;;
69951;SDS011;60406;48.408;13.392;2022-07-06T05:20:16;7.10;;;6.20;;
69951;SDS011;60406;48.408;13.392;2022-07-06T05:25:17;8.75;;;5.63;;
69951;SDS011;60406;48.408;13.392;2022-07-06T05:30:18;5.97;;;5.38;;
69951;SDS011;60406;48.408;13.392;2022-07-06T05:35:19;5.20;;;4.10;;
69951;SDS011;60406;48.408;13.392;2022-07-06T05:40:19;6.88;;;4.72;;
69951;SDS011;60406;48.408;13.392;2022-07-06T05:45:20;6.65;;;5.70;;
69951;SDS011;60406;48.408;13.392;2022-07-06T05:50:21;15.40;;;7.70;;
69951;SDS011;60406;48.408;13.392;2022-07-06T05:55:22;11.02;;;7.50;;
69951;SDS011;60406;48.408;13.392;2022-07-06T06:00:23;8.85;;;7.20;;
69951;SDS011;60406;48.408;13.392;2022-07-06T06:05:25;13.90;;;8.15;;
69951;SDS011;60406;48.408;13.392;2022-07-06T06:10:26;15.13;;;8.57;;
69951;SDS011;60406;48.408;13.392;2022-07-06T06:15:27;8.18;;;6.88;;
69951;SDS011;60406;48.408;13.392;2022-07-06T06:20:28;9.35;;;7.15;;
69951;SDS011;60406;48.408;13.392;2022-07-06T06:25:33;13.05;;;8.18;;
69951;SDS011;60406;48.408;13.392;2022-07-06T06:30:35;8.70;;;6.50;;
69951;SDS011;60406;48.408;13.392;2022-07-06T06:35:37;16.20;;;5.50;;
69951;SDS011;60406;48.408;13.392;2022-07-06T06:40:39;10.43;;;6.65;;
69951;SDS011;60406;48.408;13.392;2022-07-06T06:45:39;11.25;;;6.03;;
69951;SDS011;60406;48.408;13.392;2022-07-06T06:50:40;8.50;;;5.63;;
69951;SDS011;60406;48.408;13.392;2022-07-06T06:55:41;7.07;;;6.38;;
69951;SDS011;60406;48.408;13.392;2022-07-06T07:00:42;9.00;;;5.57;;
69951;SDS011;60406;48.408;13.392;2022-07-06T07:05:43;10.95;;;6.65;;
69951;SDS011;60406;48.408;13.392;2022-07-06T07:10:44;13.88;;;5.80;;
69951;SDS011;60406;48.408;13.392;2022-07-06T07:15:45;8.27;;;5.60;;
69951;SDS011;60406;48.408;13.392;2022-07-06T07:20:45;5.55;;;4.75;;
69951;SDS011;60406;48.408;13.392;2022-07-06T07:25:46;6.45;;;5.80;;
69951;SDS011;60406;48.408;13.392;2022-07-06T07:30:47;14.27;;;7.28;;
69951;SDS011;60406;48.408;13.392;2022-07-06T07:35:48;9.73;;;5.75;;
69951;SDS011;60406;48.408;13.392;2022-07-06T07:40:49;8.73;;;5.82;;
69951;SDS011;60406;48.408;13.392;2022-07-06T07:45:50;6.45;;;5.75;;
69951;SDS011;60406;48.408;13.392;2022-07-06T07:50:50;8.85;;;4.80;;
69951;SDS011;60406;48.408;13.392;2022-07-06T07:55:52;9.07;;;6.15;;
69951;SDS011;60406;48.408;13.392;2022-07-06T08:00:53;6.40;;;4.72;;
69951;SDS011;60406;48.408;13.392;2022-07-06T08:05:54;9.18;;;5.07;;
69951;SDS011;60406;48.408;13.392;2022-07-06T08:10:54;5.60;;;4.63;;
69951;SDS011;60406;48.408;13.392;2022-07-06T08:15:55;6.28;;;5.68;;
69951;SDS011;60406;48.408;13.392;2022-07-06T08:20:56;8.40;;;4.90;;
69951;SDS011;60406;48.408;13.392;2022-07-06T08:25:57;5.68;;;4.47;;
69951;SDS011;60406;48.408;13.392;2022-07-06T08:30:58;8.38;;;4.88;;
69951;SDS011;60406;48.408;13.392;2022-07-06T08:35:59;8.43;;;5.30;;
69951;SDS011;60406;48.408;13.392;2022-07-06T08:41:00;9.07;;;4.85;;
69951;SDS011;60406;48.408;13.392;2022-07-06T08:46:01;9.80;;;6.22;;
69951;SDS011;60406;48.408;13.392;2022-07-06T08:51:02;7.78;;;5.13;;
69951;SDS011;60406;48.408;13.392;2022-07-06T08:56:04;7.03;;;5.13;;
69951;SDS011;60406;48.408;13.392;2022-07-06T09:01:05;5.57;;;4.32;;
69951;SDS011;60406;48.408;13.392;2022-07-06T09:06:06;6.43;;;4.60;;
69951;SDS011;60406;48.408;13.392;2022-07-06T09:11:07;6.05;;;4.38;;
69951;SDS011;60406;48.408;13.392;2022-07-06T09:16:09;8.73;;;3.88;;
69951;SDS011;60406;48.408;13.392;2022-07-06T09:21:10;11.77;;;4.97;;
69951;SDS011;60406;48.408;13.392;2022-07-06T09:26:12;9.50;;;5.63;;
69951;SDS011;60406;48.408;13.392;2022-07-06T09:31:12;9.73;;;6.68;;
69951;SDS011;60406;48.408;13.392;2022-07-06T09:36:13;8.45;;;3.67;;
69951;SDS011;60406;48.408;13.392;2022-07-06T09:41:14;7.93;;;3.60;;
69951;SDS011;60406;48.408;13.392;2022-07-06T09:46:37;9.23;;;3.63;;
69951;SDS011;60406;48.408;13.392;2022-07-06T09:51:38;10.40;;;3.10;;
69951;SDS011;60406;48.408;13.392;2022-07-06T09:56:39;3.53;;;3.08;;
69951;SDS011;60406;48.408;13.392;2022-07-06T10:01:41;10.63;;;3.05;;
69951;SDS011;60406;48.408;13.392;2022-07-06T10:06:42;3.50;;;2.95;;
69951;SDS011;60406;48.408;13.392;2022-07-06T10:11:50;4.30;;;2.88;;
69951;SDS011;60406;48.408;13.392;2022-07-06T10:17:10;4.70;;;2.90;;
69951;SDS011;60406;48.408;13.392;2022-07-06T10:22:11;5.93;;;2.78;;
69951;SDS011;60406;48.408;13.392;2022-07-06T10:27:12;9.68;;;3.47;;
69951;SDS011;60406;48.408;13.392;2022-07-06T10:32:16;8.90;;;2.35;;
69951;SDS011;60406;48.408;13.392;2022-07-06T10:37:23;4.63;;;2.50;;
69951;SDS011;60406;48.408;13.392;2022-07-06T10:48:02;5.03;;;2.47;;
69951;SDS011;60406;48.408;13.392;2022-07-06T10:53:15;3.15;;;2.47;;
69951;SDS011;60406;48.408;13.392;2022-07-06T11:13:43;7.80;;;2.78;;
69951;SDS011;60406;48.408;13.392;2022-07-06T11:18:49;5.07;;;2.20;;
69951;SDS011;60406;48.408;13.392;2022-07-06T11:23:59;2.80;;;2.03;;
69951;SDS011;60406;48.408;13.392;2022-07-06T11:29:00;3.65;;;2.30;;
69951;SDS011;60406;48.408;13.392;2022-07-06T11:34:01;5.53;;;2.33;;
69951;SDS011;60406;48.408;13.392;2022-07-06T11:39:03;4.30;;;2.25;;
69951;SDS011;60406;48.408;13.392;2022-07-06T11:44:04;4.45;;;2.50;;
69951;SDS011;60406;48.408;13.392;2022-07-06T11:49:06;4.13;;;2.53;;
69951;SDS011;60406;48.408;13.392;2022-07-06T11:54:11;5.45;;;2.58;;
69951;SDS011;60406;48.408;13.392;2022-07-06T11:59:16;4.45;;;2.50;;
69951;SDS011;60406;48.408;13.392;2022-07-06T12:04:20;4.05;;;2.47;;
69951;SDS011;60406;48.408;13.392;2022-07-06T12:09:24;4.63;;;2.33;;
69951;SDS011;60406;48.408;13.392;2022-07-06T12:14:25;5.43;;;2.20;;
69951;SDS011;60406;48.408;13.392;2022-07-06T12:19:26;5.05;;;2.35;;
69951;SDS011;60406;48.408;13.392;2022-07-06T12:24:27;3.30;;;2.10;;
69951;SDS011;60406;48.408;13.392;2022-07-06T12:29:29;5.07;;;2.13;;
69951;SDS011;60406;48.408;13.392;2022-07-06T12:34:30;3.53;;;2.20;;
69951;SDS011;60406;48.408;13.392;2022-07-06T12:39:30;4.10;;;2.08;;
69951;SDS011;60406;48.408;13.392;2022-07-06T12:44:31;7.35;;;2.25;;
69951;SDS011;60406;48.408;13.392;2022-07-06T12:49:33;5.03;;;2.60;;
69951;SDS011;60406;48.408;13.392;2022-07-06T12:59:46;5.20;;;2.45;;
69951;SDS011;60406;48.408;13.392;2022-07-06T13:05:01;2.95;;;2.10;;
69951;SDS011;60406;48.408;13.392;2022-07-06T13:10:09;4.40;;;2.20;;
69951;SDS011;60406;48.408;13.392;2022-07-06T13:15:11;4.55;;;2.10;;
69951;SDS011;60406;48.408;13.392;2022-07-06T13:20:13;8.32;;;2.40;;
69951;SDS011;60406;48.408;13.392;2022-07-06T13:25:14;5.53;;;3.13;;
69951;SDS011;60406;48.408;13.392;2022-07-06T13:30:15;4.80;;;2.63;;
69951;SDS011;60406;48.408;13.392;2022-07-06T13:35:16;2.47;;;2.05;;
69951;SDS011;60406;48.408;13.392;2022-07-06T13:40:16;4.80;;;2.53;;
69951;SDS011;60406;48.408;13.392;2022-07-06T13:45:17;3.10;;;1.95;;
69951;SDS011;60406;48.408;13.392;2022-07-06T13:50:18;8.18;;;2.33;;
69951;SDS011;60406;48.408;13.392;2022-07-06T13:55:19;3.70;;;1.90;;
69951;SDS011;60406;48.408;13.392;2022-07-06T14:00:20;4.80;;;2.00;;
69951;SDS011;60406;48.408;13.392;2022-07-06T14:05:21;6.90;;;2.10;;
69951;SDS011;60406;48.408;13.392;2022-07-06T14:10:22;3.35;;;2.00;;
69951;SDS011;60406;48.408;13.392;2022-07-06T14:15:23;6.68;;;2.13;;
69951;SDS011;60406;48.408;13.392;2022-07-06T14:20:23;3.03;;;1.77;;
69951;SDS011;60406;48.408;13.392;2022-07-06T14:25:24;3.50;;;2.03;;
69951;SDS011;60406;48.408;13.392;2022-07-06T14:30:25;3.55;;;2.00;;
69951;SDS011;60406;48.408;13.392;2022-07-06T14:35:26;2.87;;;1.70;;
69951;SDS011;60406;48.408;13.392;2022-07-06T14:40:27;4.90;;;2.27;;
69951;SDS011;60406;48.408;13.392;2022-07-06T14:45:28;2.03;;;1.90;;
69951;SDS011;60406;48.408;13.392;2022-07-06T14:50:29;4.55;;;2.30;;
69951;SDS011;60406;48.408;13.392;2022-07-06T14:55:30;6.40;;;2.10;;
69951;SDS011;60406;48.408;13.392;2022-07-06T15:00:31;7.82;;;1.90;;
69951;SDS011;60406;48.408;13.392;2022-07-06T15:05:32;5.70;;;1.77;;
69951;SDS011;60406;48.408;13.392;2022-07-06T15:10:33;3.75;;;1.77;;
69951;SDS011;60406;48.408;13.392;2022-07-06T15:15:34;2.70;;;1.50;;
69951;SDS011;60406;48.408;13.392;2022-07-06T15:25:36;1.50;;;1.40;;
69951;SDS011;60406;48.408;13.392;2022-07-06T15:30:37;3.60;;;1.73;;
69951;SDS011;60406;48.408;13.392;2022-07-06T15:35:38;3.53;;;1.30;;
69951;SDS011;60406;48.408;13.392;2022-07-06T15:40:38;3.20;;;1.60;;
69951;SDS011;60406;48.408;13.392;2022-07-06T15:45:39;3.77;;;1.77;;
69951;SDS011;60406;48.408;13.392;2022-07-06T15:50:40;2.17;;;1.70;;
69951;SDS011;60406;48.408;13.392;2022-07-06T15:55:41;5.95;;;1.60;;
69951;SDS011;60406;48.408;13.392;2022-07-06T16:00:42;5.23;;;1.60;;
69951;SDS011;60406;48.408;13.392;2022-07-06T16:05:43;1.93;;;1.43;;
69951;SDS011;60406;48.408;13.392;2022-07-06T16:10:44;3.83;;;1.67;;
69951;SDS011;60406;48.408;13.392;2022-07-06T16:15:45;2.90;;;1.65;;
69951;SDS011;60406;48.408;13.392;2022-07-06T16:20:46;3.03;;;1.55;;
69951;SDS011;60406;48.408;13.392;2022-07-06T16:25:47;4.93;;;1.65;;
69951;SDS011;60406;48.408;13.392;2022-07-06T16:30:48;5.97;;;1.30;;
69951;SDS011;60406;48.408;13.392;2022-07-06T16:35:49;3.73;;;1.20;;
69951;SDS011;60406;48.408;13.392;2022-07-06T16:40:50;2.87;;;1.33;;
69951;SDS011;60406;48.408;13.392;2022-07-06T16:45:50;4.20;;;1.17;;
69951;SDS011;60406;48.408;13.392;2022-07-06T16:50:51;2.50;;;1.30;;
69951;SDS011;60406;48.408;13.392;2022-07-06T16:55:52;6.80;;;1.60;;
69951;SDS011;60406;48.408;13.392;2022-07-06T17:00:53;5.73;;;1.70;;
69951;SDS011;60406;48.408;13.392;2022-07-06T17:05:54;2.70;;;1.43;;
69951;SDS011;60406;48.408;13.392;2022-07-06T17:10:55;2.50;;;1.60;;
69951;SDS011;60406;48.408;13.392;2022-07-06T17:15:56;2.10;;;1.38;;
69951;SDS011;60406;48.408;13.392;2022-07-06T17:20:57;4.30;;;1.52;;
69951;SDS011;60406;48.408;13.392;2022-07-06T17:25:57;3.03;;;1.52;;
69951;SDS011;60406;48.408;13.392;2022-07-06T17:30:58;3.05;;;1.30;;
69951;SDS011;60406;48.408;13.392;2022-07-06T17:35:59;5.82;;;1.40;;
69951;SDS011;60406;48.408;13.392;2022-07-06T17:41:01;5.63;;;1.40;;
69951;SDS011;60406;48.408;13.392;2022-07-06T17:46:02;2.03;;;1.50;;
69951;SDS011;60406;48.408;13.392;2022-07-06T17:51:02;2.37;;;1.30;;
69951;SDS011;60406;48.408;13.392;2022-07-06T17:56:03;1.45;;;1.35;;
69951;SDS011;60406;48.408;13.392;2022-07-06T18:01:04;3.70;;;1.42;;
69951;SDS011;60406;48.408;13.392;2022-07-06T18:06:05;2.40;;;1.65;;
69951;SDS011;60406;48.408;13.392;2022-07-06T18:11:06;5.90;;;1.63;;
69951;SDS011;60406;48.408;13.392;2022-07-06T18:16:07;6.20;;;1.83;;
69951;SDS011;60406;48.408;13.392;2022-07-06T18:21:08;3.10;;;1.70;;
69951;SDS011;60406;48.408;13.392;2022-07-06T18:26:09;3.90;;;1.85;;
69951;SDS011;60406;48.408;13.392;2022-07-06T18:31:10;5.95;;;1.75;;
69951;SDS011;60406;48.408;13.392;2022-07-06T18:36:11;5.93;;;1.60;;
69951;SDS011;60406;48.408;13.392;2022-07-06T18:41:12;1.58;;;1.48;;
69951;SDS011;60406;48.408;13.392;2022-07-06T18:46:13;5.85;;;2.30;;
69951;SDS011;60406;48.408;13.392;2022-07-06T18:51:14;8.73;;;1.90;;
69951;SDS011;60406;48.408;13.392;2022-07-06T18:56:15;3.83;;;1.65;;
69951;SDS011;60406;48.408;13.392;2022-07-06T19:01:16;3.15;;;2.00;;
69951;SDS011;60406;48.408;13.392;2022-07-06T19:06:17;6.32;;;1.80;;
69951;SDS011;60406;48.408;13.392;2022-07-06T19:11:18;2.95;;;1.83;;
69951;SDS011;60406;48.408;13.392;2022-07-06T19:16:19;3.03;;;2.13;;
69951;SDS011;60406;48.408;13.392;2022-07-06T19:21:20;6.57;;;2.28;;
69951;SDS011;60406;48.408;13.392;2022-07-06T19:26:21;8.27;;;2.30;;
69951;SDS011;60406;48.408;13.392;2022-07-06T19:31:22;10.00;;;2.30;;
69951;SDS011;60406;48.408;13.392;2022-07-06T19:36:23;6.80;;;1.90;;
69951;SDS011;60406;48.408;13.392;2022-07-06T19:41:23;4.75;;;1.98;;
69951;SDS011;60406;48.408;13.392;2022-07-06T19:46:24;5.78;;;2.80;;
69951;SDS011;60406;48.408;13.392;2022-07-06T19:51:25;6.80;;;2.47;;
69951;SDS011;60406;48.408;13.392;2022-07-06T19:56:26;3.33;;;2.20;;
69951;SDS011;60406;48.408;13.392;2022-07-06T20:01:27;7.13;;;2.42;;
69951;SDS011;60406;48.408;13.392;2022-07-06T20:06:28;3.95;;;2.78;;
69951;SDS011;60406;48.408;13.392;2022-07-06T20:11:29;5.15;;;2.80;;
69951;SDS011;60406;48.408;13.392;2022-07-06T20:16:30;5.47;;;3.00;;
69951;SDS011;60406;48.408;13.392;2022-07-06T20:21:31;3.28;;;2.97;;
69951;SDS011;60406;48.408;13.392;2022-07-06T20:26:31;5.32;;;3.03;;
69951;SDS011;60406;48.408;13.392;2022-07-06T20:31:32;8.52;;;3.50;;
69951;SDS011;60406;48.408;13.392;2022-07-06T20:36:33;3.65;;;3.35;;
69951;SDS011;60406;48.408;13.392;2022-07-06T20:41:34;4.75;;;3.55;;
69951;SDS011;60406;48.408;13.392;2022-07-06T20:46:35;4.03;;;3.60;;
69951;SDS011;60406;48.408;13.392;2022-07-06T20:51:37;6.15;;;4.35;;
69951;SDS011;60406;48.408;13.392;2022-07-06T20:56:38;8.10;;;4.53;;
69951;SDS011;60406;48.408;13.392;2022-07-06T21:01:39;4.35;;;3.88;;
69951;SDS011;60406;48.408;13.392;2022-07-06T21:06:41;6.50;;;4.30;;
69951;SDS011;60406;48.408;13.392;2022-07-06T21:11:42;4.80;;;3.70;;
69951;SDS011;60406;48.408;13.392;2022-07-06T21:16:43;4.57;;;3.90;;
69951;SDS011;60406;48.408;13.392;2022-07-06T21:21:44;6.95;;;3.88;;
69951;SDS011;60406;48.408;13.392;2022-07-06T21:26:45;6.47;;;4.38;;
69951;SDS011;60406;48.408;13.392;2022-07-06T21:31:46;5.72;;;4.68;;
69951;SDS011;60406;48.408;13.392;2022-07-06T21:36:46;5.82;;;4.15;;
69951;SDS011;60406;48.408;13.392;2022-07-06T21:41:47;8.70;;;4.43;;
69951;SDS011;60406;48.408;13.392;2022-07-06T21:46:48;6.20;;;4.80;;
69951;SDS011;60406;48.408;13.392;2022-07-06T21:51:49;4.50;;;4.05;;
69951;SDS011;60406;48.408;13.392;2022-07-06T21:56:50;10.00;;;4.28;;
69951;SDS011;60406;48.408;13.392;2022-07-06T22:01:51;5.93;;;4.28;;
69951;SDS011;60406;48.408;13.392;2022-07-06T22:06:52;10.52;;;5.82;;
69951;SDS011;60406;48.408;13.392;2022-07-06T22:11:53;13.40;;;4.25;;
69951;SDS011;60406;48.408;13.392;2022-07-06T22:16:53;5.95;;;4.22;;
69951;SDS011;60406;48.408;13.392;2022-07-06T22:21:54;5.30;;;4.50;;
69951;SDS011;60406;48.408;13.392;2022-07-06T22:26:55;10.23;;;4.50;;
69951;SDS011;60406;48.408;13.392;2022-07-06T22:31:56;9.02;;;4.55;;
69951;SDS011;60406;48.408;13.392;2022-07-06T22:36:57;10.82;;;4.50;;
69951;SDS011;60406;48.408;13.392;2022-07-06T22:41:58;8.57;;;4.40;;
69951;SDS011;60406;48.408;13.392;2022-07-06T22:46:58;8.90;;;4.45;;
69951;SDS011;60406;48.408;13.392;2022-07-06T22:51:59;6.68;;;5.22;;
69951;SDS011;60406;48.408;13.392;2022-07-06T22:57:00;5.93;;;5.43;;
69951;SDS011;60406;48.408;13.392;2022-07-06T23:02:01;5.45;;;4.95;;
69951;SDS011;60406;48.408;13.392;2022-07-06T23:07:02;10.10;;;5.72;;
69951;SDS011;60406;48.408;13.392;2022-07-06T23:12:03;9.05;;;5.68;;
69951;SDS011;60406;48.408;13.392;2022-07-06T23:17:04;5.75;;;5.30;;
69951;SDS011;60406;48.408;13.392;2022-07-06T23:22:05;6.32;;;5.57;;
69951;SDS011;60406;48.408;13.392;2022-07-06T23:27:06;9.85;;;5.68;;
69951;SDS011;60406;48.408;13.392;2022-07-06T23:32:07;6.90;;;5.15;;
69951;SDS011;60406;48.408;13.392;2022-07-06T23:37:08;5.70;;;5.20;;
69951;SDS011;60406;48.408;13.392;2022-07-06T23:42:09;8.70;;;5.38;;
69951;SDS011;60406;48.408;13.392;2022-07-06T23:47:10;8.18;;;4.97;;
69951;SDS011;60406;48.408;13.392;2022-07-06T23:52:11;11.75;;;5.28;;
69951;SDS011;60406;48.408;13.392;2022-07-06T23:57:12;7.72;;;5.28;;
